Beason, Illinois
Current Conditions -  °F | °C
As of 8:55 AM on Wednesday 22 Oct 2014 (Local Time) from KAAA Reporting Station
Clear Clear  
Wind Chill: 40°   Ceiling: Unl
Heat Index: 43°   Visibility: 10mi
Dew Point: 41°   Wind: 5mph
Humidity: 94%   Direction: 90°E
Pressure: 30.35"   Gusts: NA
Location:  40.14°N, 89.19°W
Report Text: KAAA 221355Z AUTO 09004KT 10SM CLR 06/05 A3035 RMK AO2 T00610052
Loading
Personal Weather Stations






























Interactive Weather Map
Tropical Storm Tracking
New forecast layout! Learn more

10-Day Weather Forecast

Advertisements
Track Severe Weather on mobile